sensor_id;sensor_type;location;lat;lon;timestamp;P1;durP1;ratioP1;P2;durP2;ratioP2
21239;SDS011;10778;48.962;9.018;2023-05-31T00:00:49;5.05;;;2.13;;
21239;SDS011;10778;48.962;9.018;2023-05-31T00:03:16;4.13;;;1.85;;
21239;SDS011;10778;48.962;9.018;2023-05-31T00:05:42;5.50;;;2.03;;
21239;SDS011;10778;48.962;9.018;2023-05-31T00:08:08;4.35;;;2.00;;
21239;SDS011;10778;48.962;9.018;2023-05-31T00:10:33;4.53;;;1.90;;
21239;SDS011;10778;48.962;9.018;2023-05-31T00:12:59;6.07;;;1.98;;
21239;SDS011;10778;48.962;9.018;2023-05-31T00:15:27;4.30;;;1.95;;
21239;SDS011;10778;48.962;9.018;2023-05-31T00:17:52;3.45;;;1.83;;
21239;SDS011;10778;48.962;9.018;2023-05-31T00:20:19;5.05;;;1.70;;
21239;SDS011;10778;48.962;9.018;2023-05-31T00:22:46;4.13;;;1.95;;
21239;SDS011;10778;48.962;9.018;2023-05-31T00:25:12;3.22;;;1.77;;
21239;SDS011;10778;48.962;9.018;2023-05-31T00:27:39;5.45;;;2.00;;
21239;SDS011;10778;48.962;9.018;2023-05-31T00:30:05;4.05;;;1.90;;
21239;SDS011;10778;48.962;9.018;2023-05-31T00:32:32;4.75;;;2.00;;
21239;SDS011;10778;48.962;9.018;2023-05-31T00:34:58;4.90;;;1.80;;
21239;SDS011;10778;48.962;9.018;2023-05-31T00:37:24;3.45;;;1.80;;
21239;SDS011;10778;48.962;9.018;2023-05-31T00:39:50;3.85;;;2.00;;
21239;SDS011;10778;48.962;9.018;2023-05-31T00:42:16;5.03;;;2.20;;
21239;SDS011;10778;48.962;9.018;2023-05-31T00:44:42;3.42;;;1.90;;
21239;SDS011;10778;48.962;9.018;2023-05-31T00:47:08;5.65;;;2.05;;
21239;SDS011;10778;48.962;9.018;2023-05-31T00:49:35;3.90;;;1.73;;
21239;SDS011;10778;48.962;9.018;2023-05-31T00:52:01;4.00;;;1.80;;
21239;SDS011;10778;48.962;9.018;2023-05-31T00:54:27;6.70;;;2.00;;
21239;SDS011;10778;48.962;9.018;2023-05-31T00:56:54;6.45;;;2.33;;
21239;SDS011;10778;48.962;9.018;2023-05-31T00:59:20;5.47;;;1.85;;
21239;SDS011;10778;48.962;9.018;2023-05-31T01:01:46;6.97;;;1.95;;
21239;SDS011;10778;48.962;9.018;2023-05-31T01:04:15;5.15;;;1.95;;
21239;SDS011;10778;48.962;9.018;2023-05-31T01:06:41;6.00;;;1.77;;
21239;SDS011;10778;48.962;9.018;2023-05-31T01:09:07;4.43;;;2.10;;
21239;SDS011;10778;48.962;9.018;2023-05-31T01:19:51;5.15;;;2.17;;
21239;SDS011;10778;48.962;9.018;2023-05-31T01:22:27;5.03;;;1.80;;
21239;SDS011;10778;48.962;9.018;2023-05-31T01:25:06;4.47;;;1.90;;
21239;SDS011;10778;48.962;9.018;2023-05-31T01:27:42;5.07;;;2.10;;
21239;SDS011;10778;48.962;9.018;2023-05-31T01:30:09;4.15;;;1.88;;
21239;SDS011;10778;48.962;9.018;2023-05-31T01:32:36;5.00;;;1.85;;
21239;SDS011;10778;48.962;9.018;2023-05-31T01:35:03;5.47;;;2.08;;
21239;SDS011;10778;48.962;9.018;2023-05-31T01:37:29;3.72;;;1.90;;
21239;SDS011;10778;48.962;9.018;2023-05-31T01:39:56;6.60;;;1.98;;
21239;SDS011;10778;48.962;9.018;2023-05-31T01:42:22;4.15;;;1.83;;
21239;SDS011;10778;48.962;9.018;2023-05-31T01:44:49;4.15;;;1.85;;
21239;SDS011;10778;48.962;9.018;2023-05-31T01:47:17;4.20;;;2.10;;
21239;SDS011;10778;48.962;9.018;2023-05-31T01:49:44;3.90;;;1.90;;
21239;SDS011;10778;48.962;9.018;2023-05-31T01:52:12;4.40;;;1.88;;
21239;SDS011;10778;48.962;9.018;2023-05-31T01:54:41;3.33;;;1.65;;
21239;SDS011;10778;48.962;9.018;2023-05-31T01:57:07;3.08;;;2.00;;
21239;SDS011;10778;48.962;9.018;2023-05-31T01:59:36;4.25;;;1.90;;
21239;SDS011;10778;48.962;9.018;2023-05-31T02:02:05;5.40;;;1.95;;
21239;SDS011;10778;48.962;9.018;2023-05-31T02:04:31;4.07;;;1.88;;
21239;SDS011;10778;48.962;9.018;2023-05-31T02:06:58;5.50;;;2.35;;
21239;SDS011;10778;48.962;9.018;2023-05-31T02:09:24;6.18;;;2.15;;
21239;SDS011;10778;48.962;9.018;2023-05-31T02:11:50;3.78;;;1.83;;
21239;SDS011;10778;48.962;9.018;2023-05-31T02:14:16;4.70;;;2.00;;
21239;SDS011;10778;48.962;9.018;2023-05-31T02:16:42;3.47;;;1.85;;
21239;SDS011;10778;48.962;9.018;2023-05-31T02:19:08;5.00;;;2.03;;
21239;SDS011;10778;48.962;9.018;2023-05-31T02:21:40;5.63;;;2.28;;
21239;SDS011;10778;48.962;9.018;2023-05-31T02:24:08;3.08;;;1.95;;
21239;SDS011;10778;48.962;9.018;2023-05-31T02:26:34;3.17;;;1.92;;
21239;SDS011;10778;48.962;9.018;2023-05-31T02:29:00;4.82;;;2.00;;
21239;SDS011;10778;48.962;9.018;2023-05-31T02:31:26;4.53;;;2.13;;
21239;SDS011;10778;48.962;9.018;2023-05-31T02:33:52;5.13;;;2.35;;
21239;SDS011;10778;48.962;9.018;2023-05-31T02:36:18;6.13;;;2.60;;
21239;SDS011;10778;48.962;9.018;2023-05-31T02:38:45;6.30;;;2.10;;
21239;SDS011;10778;48.962;9.018;2023-05-31T02:41:12;3.03;;;1.80;;
21239;SDS011;10778;48.962;9.018;2023-05-31T02:43:38;6.10;;;2.10;;
21239;SDS011;10778;48.962;9.018;2023-05-31T02:46:04;4.43;;;1.90;;
21239;SDS011;10778;48.962;9.018;2023-05-31T02:48:31;4.63;;;2.13;;
21239;SDS011;10778;48.962;9.018;2023-05-31T02:50:58;4.05;;;2.05;;
21239;SDS011;10778;48.962;9.018;2023-05-31T02:53:44;5.15;;;1.83;;
21239;SDS011;10778;48.962;9.018;2023-05-31T02:56:15;5.32;;;2.13;;
21239;SDS011;10778;48.962;9.018;2023-05-31T02:58:58;4.47;;;2.10;;
21239;SDS011;10778;48.962;9.018;2023-05-31T03:01:39;6.32;;;2.22;;
21239;SDS011;10778;48.962;9.018;2023-05-31T03:04:36;4.55;;;2.00;;
21239;SDS011;10778;48.962;9.018;2023-05-31T03:07:03;6.03;;;2.03;;
21239;SDS011;10778;48.962;9.018;2023-05-31T03:09:30;4.88;;;1.95;;
21239;SDS011;10778;48.962;9.018;2023-05-31T03:11:56;5.40;;;2.10;;
21239;SDS011;10778;48.962;9.018;2023-05-31T03:14:23;4.20;;;1.95;;
21239;SDS011;10778;48.962;9.018;2023-05-31T03:16:53;5.85;;;2.00;;
21239;SDS011;10778;48.962;9.018;2023-05-31T03:19:19;5.05;;;2.08;;
21239;SDS011;10778;48.962;9.018;2023-05-31T03:21:49;5.75;;;2.00;;
21239;SDS011;10778;48.962;9.018;2023-05-31T03:24:15;4.65;;;1.85;;
21239;SDS011;10778;48.962;9.018;2023-05-31T03:26:42;5.72;;;2.20;;
21239;SDS011;10778;48.962;9.018;2023-05-31T03:29:08;3.63;;;1.98;;
21239;SDS011;10778;48.962;9.018;2023-05-31T03:31:35;8.50;;;2.05;;
21239;SDS011;10778;48.962;9.018;2023-05-31T03:34:01;6.80;;;2.00;;
21239;SDS011;10778;48.962;9.018;2023-05-31T03:36:27;6.50;;;2.00;;
21239;SDS011;10778;48.962;9.018;2023-05-31T03:38:55;5.95;;;2.00;;
21239;SDS011;10778;48.962;9.018;2023-05-31T03:41:21;5.30;;;1.92;;
21239;SDS011;10778;48.962;9.018;2023-05-31T03:43:47;3.78;;;1.98;;
21239;SDS011;10778;48.962;9.018;2023-05-31T03:46:13;3.42;;;1.80;;
21239;SDS011;10778;48.962;9.018;2023-05-31T03:48:39;7.22;;;1.90;;
21239;SDS011;10778;48.962;9.018;2023-05-31T03:51:05;4.07;;;2.00;;
21239;SDS011;10778;48.962;9.018;2023-05-31T03:53:31;4.82;;;1.90;;
21239;SDS011;10778;48.962;9.018;2023-05-31T03:55:59;2.95;;;1.77;;
21239;SDS011;10778;48.962;9.018;2023-05-31T03:58:25;4.95;;;2.05;;
21239;SDS011;10778;48.962;9.018;2023-05-31T04:00:51;4.97;;;2.30;;
21239;SDS011;10778;48.962;9.018;2023-05-31T04:03:17;4.90;;;1.95;;
21239;SDS011;10778;48.962;9.018;2023-05-31T04:05:43;5.22;;;2.10;;
21239;SDS011;10778;48.962;9.018;2023-05-31T04:08:09;6.80;;;1.92;;
21239;SDS011;10778;48.962;9.018;2023-05-31T04:10:36;4.47;;;1.80;;
21239;SDS011;10778;48.962;9.018;2023-05-31T04:13:02;3.67;;;1.90;;
21239;SDS011;10778;48.962;9.018;2023-05-31T04:15:28;3.60;;;1.98;;
21239;SDS011;10778;48.962;9.018;2023-05-31T04:17:58;3.53;;;1.98;;
21239;SDS011;10778;48.962;9.018;2023-05-31T04:20:25;4.93;;;1.90;;
21239;SDS011;10778;48.962;9.018;2023-05-31T04:22:52;3.58;;;2.00;;
21239;SDS011;10778;48.962;9.018;2023-05-31T04:25:19;4.53;;;2.15;;
21239;SDS011;10778;48.962;9.018;2023-05-31T04:27:45;3.85;;;1.80;;
21239;SDS011;10778;48.962;9.018;2023-05-31T04:30:13;3.75;;;2.00;;
21239;SDS011;10778;48.962;9.018;2023-05-31T04:32:40;3.55;;;1.92;;
21239;SDS011;10778;48.962;9.018;2023-05-31T04:35:07;4.72;;;2.00;;
21239;SDS011;10778;48.962;9.018;2023-05-31T04:37:37;4.90;;;2.08;;
21239;SDS011;10778;48.962;9.018;2023-05-31T04:40:06;5.60;;;1.90;;
21239;SDS011;10778;48.962;9.018;2023-05-31T04:42:35;4.40;;;2.08;;
21239;SDS011;10778;48.962;9.018;2023-05-31T04:45:02;4.13;;;1.90;;
21239;SDS011;10778;48.962;9.018;2023-05-31T04:47:34;7.55;;;2.25;;
21239;SDS011;10778;48.962;9.018;2023-05-31T04:50:01;6.70;;;2.17;;
21239;SDS011;10778;48.962;9.018;2023-05-31T04:52:27;4.10;;;2.00;;
21239;SDS011;10778;48.962;9.018;2023-05-31T04:54:55;5.15;;;2.28;;
21239;SDS011;10778;48.962;9.018;2023-05-31T04:57:23;4.55;;;1.95;;
21239;SDS011;10778;48.962;9.018;2023-05-31T04:59:51;6.40;;;2.10;;
21239;SDS011;10778;48.962;9.018;2023-05-31T05:02:18;3.90;;;2.00;;
21239;SDS011;10778;48.962;9.018;2023-05-31T05:04:45;5.88;;;2.03;;
21239;SDS011;10778;48.962;9.018;2023-05-31T05:07:11;6.20;;;2.13;;
21239;SDS011;10778;48.962;9.018;2023-05-31T05:09:38;5.82;;;2.30;;
21239;SDS011;10778;48.962;9.018;2023-05-31T05:12:04;6.72;;;2.20;;
21239;SDS011;10778;48.962;9.018;2023-05-31T05:14:32;4.68;;;2.13;;
21239;SDS011;10778;48.962;9.018;2023-05-31T05:16:58;4.72;;;2.00;;
21239;SDS011;10778;48.962;9.018;2023-05-31T05:19:24;5.13;;;1.98;;
21239;SDS011;10778;48.962;9.018;2023-05-31T05:21:51;4.35;;;2.00;;
21239;SDS011;10778;48.962;9.018;2023-05-31T05:24:17;7.15;;;2.30;;
21239;SDS011;10778;48.962;9.018;2023-05-31T05:26:43;5.18;;;2.10;;
21239;SDS011;10778;48.962;9.018;2023-05-31T05:29:10;6.43;;;2.13;;
21239;SDS011;10778;48.962;9.018;2023-05-31T05:31:37;6.47;;;2.47;;
21239;SDS011;10778;48.962;9.018;2023-05-31T05:34:05;3.58;;;1.90;;
21239;SDS011;10778;48.962;9.018;2023-05-31T05:36:32;13.35;;;2.63;;
21239;SDS011;10778;48.962;9.018;2023-05-31T05:39:00;4.15;;;2.10;;
21239;SDS011;10778;48.962;9.018;2023-05-31T05:41:30;5.10;;;1.98;;
21239;SDS011;10778;48.962;9.018;2023-05-31T05:43:57;5.53;;;2.10;;
21239;SDS011;10778;48.962;9.018;2023-05-31T05:46:23;6.93;;;2.20;;
21239;SDS011;10778;48.962;9.018;2023-05-31T05:48:50;4.55;;;2.33;;
21239;SDS011;10778;48.962;9.018;2023-05-31T05:51:19;6.00;;;2.20;;
21239;SDS011;10778;48.962;9.018;2023-05-31T05:53:45;4.07;;;1.90;;
21239;SDS011;10778;48.962;9.018;2023-05-31T05:56:11;8.25;;;2.20;;
21239;SDS011;10778;48.962;9.018;2023-05-31T05:58:47;5.57;;;2.20;;
21239;SDS011;10778;48.962;9.018;2023-05-31T06:01:32;3.72;;;2.00;;
21239;SDS011;10778;48.962;9.018;2023-05-31T06:04:00;6.05;;;2.05;;
21239;SDS011;10778;48.962;9.018;2023-05-31T06:06:27;4.93;;;2.20;;
21239;SDS011;10778;48.962;9.018;2023-05-31T06:08:53;4.35;;;2.15;;
21239;SDS011;10778;48.962;9.018;2023-05-31T06:11:19;3.78;;;2.00;;
21239;SDS011;10778;48.962;9.018;2023-05-31T06:13:46;7.05;;;2.10;;
21239;SDS011;10778;48.962;9.018;2023-05-31T06:16:14;6.38;;;2.22;;
21239;SDS011;10778;48.962;9.018;2023-05-31T06:18:41;6.43;;;2.20;;
21239;SDS011;10778;48.962;9.018;2023-05-31T06:21:08;5.43;;;2.30;;
21239;SDS011;10778;48.962;9.018;2023-05-31T06:23:34;4.63;;;2.10;;
21239;SDS011;10778;48.962;9.018;2023-05-31T06:26:00;6.95;;;2.15;;
21239;SDS011;10778;48.962;9.018;2023-05-31T06:28:27;7.45;;;2.03;;
21239;SDS011;10778;48.962;9.018;2023-05-31T06:30:55;5.40;;;2.10;;
21239;SDS011;10778;48.962;9.018;2023-05-31T06:33:23;5.05;;;2.08;;
21239;SDS011;10778;48.962;9.018;2023-05-31T06:35:49;4.38;;;2.00;;
21239;SDS011;10778;48.962;9.018;2023-05-31T06:38:16;4.60;;;2.10;;
21239;SDS011;10778;48.962;9.018;2023-05-31T06:40:44;6.13;;;2.40;;
21239;SDS011;10778;48.962;9.018;2023-05-31T06:43:10;6.65;;;2.33;;
21239;SDS011;10778;48.962;9.018;2023-05-31T06:46:08;7.03;;;2.47;;
21239;SDS011;10778;48.962;9.018;2023-05-31T06:49:05;4.75;;;2.20;;
21239;SDS011;10778;48.962;9.018;2023-05-31T06:52:03;5.63;;;2.45;;
21239;SDS011;10778;48.962;9.018;2023-05-31T06:54:52;6.13;;;2.20;;
21239;SDS011;10778;48.962;9.018;2023-05-31T06:57:20;5.90;;;2.30;;
21239;SDS011;10778;48.962;9.018;2023-05-31T06:59:46;4.80;;;2.20;;
21239;SDS011;10778;48.962;9.018;2023-05-31T07:02:12;5.50;;;2.67;;
21239;SDS011;10778;48.962;9.018;2023-05-31T07:04:38;5.93;;;2.08;;
21239;SDS011;10778;48.962;9.018;2023-05-31T07:07:04;3.83;;;2.10;;
21239;SDS011;10778;48.962;9.018;2023-05-31T07:09:32;3.83;;;2.17;;
21239;SDS011;10778;48.962;9.018;2023-05-31T07:11:58;7.60;;;2.38;;
21239;SDS011;10778;48.962;9.018;2023-05-31T07:14:28;6.68;;;2.47;;
21239;SDS011;10778;48.962;9.018;2023-05-31T07:16:54;6.22;;;2.20;;
21239;SDS011;10778;48.962;9.018;2023-05-31T07:19:20;4.40;;;2.30;;
21239;SDS011;10778;48.962;9.018;2023-05-31T07:21:46;6.10;;;2.20;;
21239;SDS011;10778;48.962;9.018;2023-05-31T07:24:12;5.97;;;2.50;;
21239;SDS011;10778;48.962;9.018;2023-05-31T07:26:38;6.22;;;2.58;;
21239;SDS011;10778;48.962;9.018;2023-05-31T07:29:04;4.15;;;2.25;;
21239;SDS011;10778;48.962;9.018;2023-05-31T07:31:30;4.72;;;2.30;;
21239;SDS011;10778;48.962;9.018;2023-05-31T07:33:56;5.20;;;2.30;;
21239;SDS011;10778;48.962;9.018;2023-05-31T07:36:23;7.40;;;2.50;;
21239;SDS011;10778;48.962;9.018;2023-05-31T07:38:52;5.45;;;2.30;;
21239;SDS011;10778;48.962;9.018;2023-05-31T07:41:18;5.20;;;2.30;;
21239;SDS011;10778;48.962;9.018;2023-05-31T07:43:44;5.85;;;2.53;;
21239;SDS011;10778;48.962;9.018;2023-05-31T07:46:11;5.28;;;2.95;;
21239;SDS011;10778;48.962;9.018;2023-05-31T07:48:37;6.35;;;2.35;;
21239;SDS011;10778;48.962;9.018;2023-05-31T07:51:03;5.07;;;2.20;;
21239;SDS011;10778;48.962;9.018;2023-05-31T07:53:30;10.75;;;2.65;;
21239;SDS011;10778;48.962;9.018;2023-05-31T07:55:56;7.05;;;2.58;;
21239;SDS011;10778;48.962;9.018;2023-05-31T07:58:22;7.30;;;2.67;;
21239;SDS011;10778;48.962;9.018;2023-05-31T08:00:48;5.57;;;2.42;;
21239;SDS011;10778;48.962;9.018;2023-05-31T08:03:17;5.65;;;2.58;;
21239;SDS011;10778;48.962;9.018;2023-05-31T08:05:44;5.00;;;2.45;;
21239;SDS011;10778;48.962;9.018;2023-05-31T08:08:11;5.60;;;2.58;;
21239;SDS011;10778;48.962;9.018;2023-05-31T08:10:38;7.20;;;2.70;;
21239;SDS011;10778;48.962;9.018;2023-05-31T08:13:04;5.28;;;2.50;;
21239;SDS011;10778;48.962;9.018;2023-05-31T08:15:30;5.63;;;2.47;;
21239;SDS011;10778;48.962;9.018;2023-05-31T08:17:56;5.40;;;2.47;;
21239;SDS011;10778;48.962;9.018;2023-05-31T08:20:24;5.53;;;2.60;;
21239;SDS011;10778;48.962;9.018;2023-05-31T08:22:51;7.25;;;2.60;;
21239;SDS011;10778;48.962;9.018;2023-05-31T08:25:19;5.13;;;2.40;;
21239;SDS011;10778;48.962;9.018;2023-05-31T08:27:46;7.80;;;2.60;;
21239;SDS011;10778;48.962;9.018;2023-05-31T08:30:12;5.00;;;2.30;;
21239;SDS011;10778;48.962;9.018;2023-05-31T08:32:38;5.63;;;2.40;;
21239;SDS011;10778;48.962;9.018;2023-05-31T08:35:06;6.30;;;2.33;;
21239;SDS011;10778;48.962;9.018;2023-05-31T08:37:35;6.13;;;2.50;;
21239;SDS011;10778;48.962;9.018;2023-05-31T08:40:02;6.25;;;2.47;;
21239;SDS011;10778;48.962;9.018;2023-05-31T08:42:32;6.00;;;2.40;;
21239;SDS011;10778;48.962;9.018;2023-05-31T08:45:00;8.43;;;2.65;;
21239;SDS011;10778;48.962;9.018;2023-05-31T08:47:36;6.05;;;2.53;;
21239;SDS011;10778;48.962;9.018;2023-05-31T08:50:05;7.43;;;2.40;;
21239;SDS011;10778;48.962;9.018;2023-05-31T08:52:32;5.25;;;2.55;;
21239;SDS011;10778;48.962;9.018;2023-05-31T08:54:58;4.35;;;2.20;;
21239;SDS011;10778;48.962;9.018;2023-05-31T08:57:24;6.32;;;2.60;;
21239;SDS011;10778;48.962;9.018;2023-05-31T08:59:52;5.22;;;2.55;;
21239;SDS011;10778;48.962;9.018;2023-05-31T09:02:18;5.68;;;2.80;;
21239;SDS011;10778;48.962;9.018;2023-05-31T09:04:45;6.05;;;2.97;;
21239;SDS011;10778;48.962;9.018;2023-05-31T09:07:11;6.47;;;2.65;;
21239;SDS011;10778;48.962;9.018;2023-05-31T09:09:37;5.20;;;2.70;;
21239;SDS011;10778;48.962;9.018;2023-05-31T09:12:03;5.55;;;2.75;;
21239;SDS011;10778;48.962;9.018;2023-05-31T09:14:30;6.18;;;2.85;;
21239;SDS011;10778;48.962;9.018;2023-05-31T09:16:56;5.55;;;2.60;;
21239;SDS011;10778;48.962;9.018;2023-05-31T09:19:23;6.53;;;2.58;;
21239;SDS011;10778;48.962;9.018;2023-05-31T09:21:49;4.63;;;2.80;;
21239;SDS011;10778;48.962;9.018;2023-05-31T09:24:18;7.65;;;2.50;;
21239;SDS011;10778;48.962;9.018;2023-05-31T09:26:45;6.45;;;2.55;;
21239;SDS011;10778;48.962;9.018;2023-05-31T09:29:13;5.75;;;2.40;;
21239;SDS011;10778;48.962;9.018;2023-05-31T09:31:39;6.35;;;2.53;;
21239;SDS011;10778;48.962;9.018;2023-05-31T09:34:19;7.35;;;2.92;;
21239;SDS011;10778;48.962;9.018;2023-05-31T09:36:50;7.25;;;2.45;;
21239;SDS011;10778;48.962;9.018;2023-05-31T09:39:17;4.78;;;2.40;;
21239;SDS011;10778;48.962;9.018;2023-05-31T09:41:47;5.03;;;2.60;;
21239;SDS011;10778;48.962;9.018;2023-05-31T09:44:15;7.38;;;2.72;;
21239;SDS011;10778;48.962;9.018;2023-05-31T09:46:44;7.57;;;2.42;;
21239;SDS011;10778;48.962;9.018;2023-05-31T09:49:10;4.75;;;2.60;;
21239;SDS011;10778;48.962;9.018;2023-05-31T09:51:36;5.25;;;2.53;;
21239;SDS011;10778;48.962;9.018;2023-05-31T09:54:09;5.20;;;2.70;;
21239;SDS011;10778;48.962;9.018;2023-05-31T09:56:37;4.07;;;2.50;;
21239;SDS011;10778;48.962;9.018;2023-05-31T09:59:06;5.55;;;2.60;;
21239;SDS011;10778;48.962;9.018;2023-05-31T10:01:33;5.53;;;2.50;;
21239;SDS011;10778;48.962;9.018;2023-05-31T10:04:00;4.55;;;2.40;;
21239;SDS011;10778;48.962;9.018;2023-05-31T10:06:28;5.25;;;2.70;;
21239;SDS011;10778;48.962;9.018;2023-05-31T10:08:56;4.90;;;2.40;;
21239;SDS011;10778;48.962;9.018;2023-05-31T10:11:26;6.25;;;2.47;;
21239;SDS011;10778;48.962;9.018;2023-05-31T10:14:01;5.38;;;2.67;;
21239;SDS011;10778;48.962;9.018;2023-05-31T10:16:32;8.32;;;2.53;;
21239;SDS011;10778;48.962;9.018;2023-05-31T10:19:09;5.22;;;2.33;;
21239;SDS011;10778;48.962;9.018;2023-05-31T10:21:40;5.80;;;2.42;;
21239;SDS011;10778;48.962;9.018;2023-05-31T10:24:16;5.32;;;2.33;;
21239;SDS011;10778;48.962;9.018;2023-05-31T10:29:26;5.05;;;2.47;;
21239;SDS011;10778;48.962;9.018;2023-05-31T10:32:03;5.35;;;2.35;;
21239;SDS011;10778;48.962;9.018;2023-05-31T10:34:35;5.13;;;2.53;;
21239;SDS011;10778;48.962;9.018;2023-05-31T10:37:01;5.30;;;2.20;;
21239;SDS011;10778;48.962;9.018;2023-05-31T10:45:04;4.88;;;2.40;;
21239;SDS011;10778;48.962;9.018;2023-05-31T10:47:37;5.85;;;2.50;;
21239;SDS011;10778;48.962;9.018;2023-05-31T10:50:07;5.28;;;2.60;;
21239;SDS011;10778;48.962;9.018;2023-05-31T10:52:33;7.03;;;2.60;;
21239;SDS011;10778;48.962;9.018;2023-05-31T10:55:16;6.32;;;2.50;;
21239;SDS011;10778;48.962;9.018;2023-05-31T10:57:43;4.55;;;2.60;;
21239;SDS011;10778;48.962;9.018;2023-05-31T11:00:10;6.25;;;2.38;;
21239;SDS011;10778;48.962;9.018;2023-05-31T11:02:45;6.90;;;2.40;;
21239;SDS011;10778;48.962;9.018;2023-05-31T11:05:23;4.80;;;2.30;;
21239;SDS011;10778;48.962;9.018;2023-05-31T11:07:53;6.93;;;2.58;;
21239;SDS011;10778;48.962;9.018;2023-05-31T11:10:27;6.47;;;2.30;;
21239;SDS011;10778;48.962;9.018;2023-05-31T11:13:01;4.28;;;2.40;;
21239;SDS011;10778;48.962;9.018;2023-05-31T11:15:41;4.93;;;2.50;;
21239;SDS011;10778;48.962;9.018;2023-05-31T11:18:09;6.63;;;2.28;;
21239;SDS011;10778;48.962;9.018;2023-05-31T11:20:40;7.47;;;2.30;;
21239;SDS011;10778;48.962;9.018;2023-05-31T11:34:28;6.15;;;2.25;;
21239;SDS011;10778;48.962;9.018;2023-05-31T11:36:59;4.95;;;2.13;;
21239;SDS011;10778;48.962;9.018;2023-05-31T11:39:27;5.55;;;2.30;;
21239;SDS011;10778;48.962;9.018;2023-05-31T11:41:53;4.68;;;2.17;;
21239;SDS011;10778;48.962;9.018;2023-05-31T11:44:21;5.82;;;2.28;;
21239;SDS011;10778;48.962;9.018;2023-05-31T11:46:55;4.82;;;2.40;;
21239;SDS011;10778;48.962;9.018;2023-05-31T11:49:27;5.75;;;2.20;;
21239;SDS011;10778;48.962;9.018;2023-05-31T11:51:55;4.50;;;2.20;;
21239;SDS011;10778;48.962;9.018;2023-05-31T11:54:28;5.90;;;2.50;;
21239;SDS011;10778;48.962;9.018;2023-05-31T11:56:59;5.07;;;2.50;;
21239;SDS011;10778;48.962;9.018;2023-05-31T11:59:29;4.80;;;2.33;;
21239;SDS011;10778;48.962;9.018;2023-05-31T12:01:58;4.05;;;2.30;;
21239;SDS011;10778;48.962;9.018;2023-05-31T12:04:29;6.20;;;2.30;;
21239;SDS011;10778;48.962;9.018;2023-05-31T12:06:59;6.28;;;2.20;;
21239;SDS011;10778;48.962;9.018;2023-05-31T12:09:26;3.95;;;2.40;;
21239;SDS011;10778;48.962;9.018;2023-05-31T12:11:55;6.95;;;2.40;;
21239;SDS011;10778;48.962;9.018;2023-05-31T12:14:22;7.95;;;2.30;;
21239;SDS011;10778;48.962;9.018;2023-05-31T12:16:51;6.40;;;2.30;;
21239;SDS011;10778;48.962;9.018;2023-05-31T12:19:17;5.65;;;2.38;;
21239;SDS011;10778;48.962;9.018;2023-05-31T12:21:44;5.40;;;2.33;;
21239;SDS011;10778;48.962;9.018;2023-05-31T12:24:14;5.93;;;2.28;;
21239;SDS011;10778;48.962;9.018;2023-05-31T12:26:44;6.28;;;2.30;;
21239;SDS011;10778;48.962;9.018;2023-05-31T12:29:15;4.72;;;2.40;;
21239;SDS011;10778;48.962;9.018;2023-05-31T12:31:42;5.35;;;2.35;;
21239;SDS011;10778;48.962;9.018;2023-05-31T12:34:09;6.70;;;2.47;;
21239;SDS011;10778;48.962;9.018;2023-05-31T12:39:14;4.07;;;2.60;;
21239;SDS011;10778;48.962;9.018;2023-05-31T12:41:46;5.07;;;2.22;;
21239;SDS011;10778;48.962;9.018;2023-05-31T12:44:13;7.53;;;2.60;;
21239;SDS011;10778;48.962;9.018;2023-05-31T12:46:42;4.95;;;2.40;;
21239;SDS011;10778;48.962;9.018;2023-05-31T12:49:11;7.43;;;2.50;;
21239;SDS011;10778;48.962;9.018;2023-05-31T12:51:45;5.57;;;2.35;;
21239;SDS011;10778;48.962;9.018;2023-05-31T12:54:11;4.57;;;2.20;;
21239;SDS011;10778;48.962;9.018;2023-05-31T12:56:38;5.53;;;2.20;;
21239;SDS011;10778;48.962;9.018;2023-05-31T12:59:04;3.60;;;2.10;;
21239;SDS011;10778;48.962;9.018;2023-05-31T13:01:30;6.53;;;2.13;;
21239;SDS011;10778;48.962;9.018;2023-05-31T13:03:57;5.18;;;1.90;;
21239;SDS011;10778;48.962;9.018;2023-05-31T13:06:23;3.88;;;2.03;;
21239;SDS011;10778;48.962;9.018;2023-05-31T13:08:49;7.90;;;2.60;;
21239;SDS011;10778;48.962;9.018;2023-05-31T13:11:15;6.47;;;2.35;;
21239;SDS011;10778;48.962;9.018;2023-05-31T13:13:41;6.07;;;2.20;;
21239;SDS011;10778;48.962;9.018;2023-05-31T13:16:08;3.85;;;2.15;;
21239;SDS011;10778;48.962;9.018;2023-05-31T13:18:34;4.20;;;2.28;;
21239;SDS011;10778;48.962;9.018;2023-05-31T13:21:00;5.47;;;2.20;;
21239;SDS011;10778;48.962;9.018;2023-05-31T13:23:26;6.30;;;2.60;;
21239;SDS011;10778;48.962;9.018;2023-05-31T13:25:52;4.38;;;2.25;;
21239;SDS011;10778;48.962;9.018;2023-05-31T13:28:18;5.30;;;2.30;;
21239;SDS011;10778;48.962;9.018;2023-05-31T13:30:48;4.53;;;2.30;;
21239;SDS011;10778;48.962;9.018;2023-05-31T13:33:14;8.02;;;2.20;;
21239;SDS011;10778;48.962;9.018;2023-05-31T13:35:40;7.30;;;2.40;;
21239;SDS011;10778;48.962;9.018;2023-05-31T13:38:06;5.88;;;2.45;;
21239;SDS011;10778;48.962;9.018;2023-05-31T13:40:32;5.10;;;2.05;;
21239;SDS011;10778;48.962;9.018;2023-05-31T13:42:59;6.22;;;2.30;;
21239;SDS011;10778;48.962;9.018;2023-05-31T13:45:25;7.10;;;2.28;;
21239;SDS011;10778;48.962;9.018;2023-05-31T13:47:51;5.60;;;2.42;;
21239;SDS011;10778;48.962;9.018;2023-05-31T13:50:17;5.45;;;2.10;;
21239;SDS011;10778;48.962;9.018;2023-05-31T13:52:43;4.85;;;2.40;;
21239;SDS011;10778;48.962;9.018;2023-05-31T13:55:09;2.97;;;1.90;;
21239;SDS011;10778;48.962;9.018;2023-05-31T13:57:35;5.45;;;2.20;;
21239;SDS011;10778;48.962;9.018;2023-05-31T14:00:02;6.35;;;2.35;;
21239;SDS011;10778;48.962;9.018;2023-05-31T14:02:36;4.22;;;2.25;;
21239;SDS011;10778;48.962;9.018;2023-05-31T14:05:05;4.63;;;2.10;;
21239;SDS011;10778;48.962;9.018;2023-05-31T14:07:32;6.30;;;2.30;;
21239;SDS011;10778;48.962;9.018;2023-05-31T14:09:58;5.40;;;2.20;;
21239;SDS011;10778;48.962;9.018;2023-05-31T14:12:24;4.20;;;2.30;;
21239;SDS011;10778;48.962;9.018;2023-05-31T14:14:50;6.35;;;2.50;;
21239;SDS011;10778;48.962;9.018;2023-05-31T14:17:16;4.20;;;2.40;;
21239;SDS011;10778;48.962;9.018;2023-05-31T14:19:42;5.90;;;2.30;;
21239;SDS011;10778;48.962;9.018;2023-05-31T14:22:08;5.07;;;1.80;;
21239;SDS011;10778;48.962;9.018;2023-05-31T14:24:34;3.97;;;2.10;;
21239;SDS011;10778;48.962;9.018;2023-05-31T14:27:00;4.43;;;2.22;;
21239;SDS011;10778;48.962;9.018;2023-05-31T14:29:35;5.70;;;2.30;;
21239;SDS011;10778;48.962;9.018;2023-05-31T14:32:01;7.18;;;2.38;;
21239;SDS011;10778;48.962;9.018;2023-05-31T14:34:27;5.10;;;2.10;;
21239;SDS011;10778;48.962;9.018;2023-05-31T14:36:53;3.90;;;2.00;;
21239;SDS011;10778;48.962;9.018;2023-05-31T14:39:19;5.30;;;2.00;;
21239;SDS011;10778;48.962;9.018;2023-05-31T14:41:45;10.73;;;2.38;;
21239;SDS011;10778;48.962;9.018;2023-05-31T14:44:11;6.22;;;2.20;;
21239;SDS011;10778;48.962;9.018;2023-05-31T14:46:37;4.28;;;2.30;;
21239;SDS011;10778;48.962;9.018;2023-05-31T14:49:03;5.45;;;2.20;;
21239;SDS011;10778;48.962;9.018;2023-05-31T14:51:29;5.13;;;1.95;;
21239;SDS011;10778;48.962;9.018;2023-05-31T14:53:56;4.40;;;2.10;;
21239;SDS011;10778;48.962;9.018;2023-05-31T14:56:22;5.90;;;2.10;;
21239;SDS011;10778;48.962;9.018;2023-05-31T14:58:48;5.45;;;2.20;;
21239;SDS011;10778;48.962;9.018;2023-05-31T15:01:14;5.05;;;2.30;;
21239;SDS011;10778;48.962;9.018;2023-05-31T15:03:41;4.28;;;2.15;;
21239;SDS011;10778;48.962;9.018;2023-05-31T15:06:07;3.25;;;2.10;;
21239;SDS011;10778;48.962;9.018;2023-05-31T15:08:33;6.78;;;2.30;;
21239;SDS011;10778;48.962;9.018;2023-05-31T15:11:00;6.63;;;2.10;;
21239;SDS011;10778;48.962;9.018;2023-05-31T15:13:26;5.70;;;2.10;;
21239;SDS011;10778;48.962;9.018;2023-05-31T15:15:52;3.15;;;2.00;;
21239;SDS011;10778;48.962;9.018;2023-05-31T15:18:18;4.60;;;2.00;;
21239;SDS011;10778;48.962;9.018;2023-05-31T15:20:44;4.35;;;2.20;;
21239;SDS011;10778;48.962;9.018;2023-05-31T15:23:10;3.55;;;2.10;;